Time;durP1;ratioP1;P1;durP2;ratioP2;P2;SDS_P1;SDS_P2;PMS_P1;PMS_P2;Temp;Humidity;BMP_temperature;BMP_pressure;BME280_temperature;BME280_humidity;BME280_pressure;Samples;Min_cycle;Max_cycle;Signal;HPM_P1;HPM_P2
2021/12/23 00:01:55;;;;;;;17.20;7.40;;;;;;;;;;4934587;28;20047;-57
2021/12/23 00:04:21;;;;;;;15.73;7.43;;;;;;;;;;4917147;28;20974;-57
2021/12/23 00:06:48;;;;;;;12.00;6.43;;;;;;;;;;4918366;28;20046;-57
2021/12/23 00:09:16;;;;;;;13.82;6.53;;;;;;;;;;4934436;28;20209;-57
2021/12/23 00:11:44;;;;;;;17.30;9.43;;;;;;;;;;4947132;28;20047;-57
2021/12/23 00:14:10;;;;;;;17.50;7.97;;;;;;;;;;4962889;28;20042;-57
2021/12/23 00:16:55;;;;;;;21.30;9.07;;;;;;;;;;4962769;28;20034;-57
2021/12/23 00:24:31;;;;;;;12.68;7.10;;;;;;;;;;4962002;28;20045;-57
2021/12/23 00:27:02;;;;;;;14.68;7.35;;;;;;;;;;4959608;28;20592;-58
2021/12/23 00:29:30;;;;;;;21.95;8.35;;;;;;;;;;4961215;28;20039;-58
2021/12/23 00:31:58;;;;;;;14.43;7.60;;;;;;;;;;4962139;28;20069;-58
2021/12/23 00:34:26;;;;;;;17.08;7.72;;;;;;;;;;4961455;28;20062;-57
2021/12/23 00:36:57;;;;;;;16.10;7.55;;;;;;;;;;4959083;28;20050;-58
2021/12/23 00:39:22;;;;;;;20.80;8.13;;;;;;;;;;4964164;28;20160;-58
2021/12/23 00:41:49;;;;;;;13.65;7.70;;;;;;;;;;4962197;28;20034;-58
2021/12/23 00:44:17;;;;;;;14.73;7.85;;;;;;;;;;4945594;28;20046;-57
2021/12/23 00:46:42;;;;;;;16.25;8.30;;;;;;;;;;4962145;28;20030;-58
2021/12/23 00:49:08;;;;;;;21.75;8.70;;;;;;;;;;4963532;28;20035;-58
2021/12/23 00:51:36;;;;;;;16.23;8.38;;;;;;;;;;4964292;28;20109;-58
2021/12/23 00:54:08;;;;;;;15.05;8.35;;;;;;;;;;4965450;28;20036;-58
2021/12/23 00:56:35;;;;;;;21.70;8.80;;;;;;;;;;4965991;28;20038;-57
2021/12/23 00:59:01;;;;;;;14.43;8.00;;;;;;;;;;4965171;28;20018;-57
2021/12/23 01:01:29;;;;;;;15.45;8.38;;;;;;;;;;4967588;28;20105;-58
2021/12/23 01:03:57;;;;;;;16.42;6.82;;;;;;;;;;4965256;28;20030;-57
2021/12/23 01:06:22;;;;;;;20.83;8.77;;;;;;;;;;4965222;28;20054;-58
2021/12/23 01:08:47;;;;;;;17.60;8.98;;;;;;;;;;4966075;28;20145;-58
2021/12/23 01:11:15;;;;;;;21.55;10.52;;;;;;;;;;4968291;28;20039;-58
2021/12/23 01:13:48;;;;;;;13.82;7.53;;;;;;;;;;4959840;28;20057;-58
2021/12/23 01:16:26;;;;;;;24.13;9.15;;;;;;;;;;4966554;28;21103;-58
2021/12/23 01:18:57;;;;;;;15.85;8.45;;;;;;;;;;4965955;28;21919;-58
2021/12/23 01:21:24;;;;;;;19.50;9.75;;;;;;;;;;4979253;28;20038;-58
2021/12/23 01:23:52;;;;;;;17.60;9.23;;;;;;;;;;4961366;28;20089;-59
2021/12/23 01:26:22;;;;;;;20.80;8.00;;;;;;;;;;4967246;28;20522;-59
2021/12/23 01:28:52;;;;;;;19.85;8.45;;;;;;;;;;4979960;28;20717;-58
2021/12/23 01:31:20;;;;;;;24.58;8.77;;;;;;;;;;4969276;28;20490;-57
2021/12/23 01:33:45;;;;;;;17.98;9.02;;;;;;;;;;4966801;28;20030;-56
2021/12/23 01:36:13;;;;;;;19.17;8.90;;;;;;;;;;4966714;28;20041;-58
2021/12/23 01:38:42;;;;;;;17.25;7.78;;;;;;;;;;4964480;28;20039;-57
2021/12/23 01:41:12;;;;;;;20.23;8.88;;;;;;;;;;4967117;28;20030;-57
2021/12/23 01:43:42;;;;;;;22.63;8.73;;;;;;;;;;4966288;28;20118;-58
2021/12/23 01:46:09;;;;;;;18.08;9.02;;;;;;;;;;4965516;28;20482;-57
2021/12/23 01:48:35;;;;;;;19.83;9.68;;;;;;;;;;4979138;28;20545;-57
2021/12/23 01:51:01;;;;;;;18.52;8.80;;;;;;;;;;4964900;28;20037;-58
2021/12/23 01:53:28;;;;;;;17.73;8.35;;;;;;;;;;4976010;28;20042;-57
2021/12/23 01:55:56;;;;;;;20.25;10.18;;;;;;;;;;4975536;28;20381;-57
2021/12/23 01:58:22;;;;;;;17.10;9.18;;;;;;;;;;4965688;28;20049;-58
2021/12/23 02:00:52;;;;;;;22.65;8.55;;;;;;;;;;4963110;28;20038;-58
2021/12/23 02:03:25;;;;;;;21.45;9.27;;;;;;;;;;4965424;28;20041;-57
2021/12/23 02:05:56;;;;;;;19.25;8.95;;;;;;;;;;4964392;28;20026;-56
2021/12/23 02:08:21;;;;;;;19.58;9.40;;;;;;;;;;4964918;28;20062;-57
2021/12/23 02:10:47;;;;;;;20.15;9.95;;;;;;;;;;4950201;28;20049;-58
2021/12/23 02:13:12;;;;;;;21.48;9.93;;;;;;;;;;4959055;28;20046;-57
2021/12/23 02:15:40;;;;;;;21.73;10.25;;;;;;;;;;4974933;28;20074;-58
2021/12/23 02:18:08;;;;;;;25.15;10.45;;;;;;;;;;4948771;28;20038;-58
2021/12/23 02:20:35;;;;;;;24.33;9.52;;;;;;;;;;4964877;28;20398;-58
2021/12/23 02:23:19;;;;;;;22.08;9.93;;;;;;;;;;4957918;28;20060;-58
2021/12/23 02:25:45;;;;;;;25.83;10.40;;;;;;;;;;4978331;28;20041;-58
2021/12/23 02:28:17;;;;;;;23.23;10.35;;;;;;;;;;4961927;28;20035;-58
2021/12/23 02:30:51;;;;;;;17.40;8.52;;;;;;;;;;4965467;28;20038;-60
2021/12/23 02:33:28;;;;;;;22.05;9.80;;;;;;;;;;4963578;28;20453;-58
2021/12/23 02:35:55;;;;;;;24.13;10.40;;;;;;;;;;4964248;28;20668;-58
2021/12/23 02:38:21;;;;;;;24.00;10.15;;;;;;;;;;4965919;28;20034;-58
2021/12/23 02:40:49;;;;;;;24.05;10.20;;;;;;;;;;4964653;28;20038;-58
2021/12/23 02:43:14;;;;;;;16.77;9.77;;;;;;;;;;4961994;28;20157;-57
2021/12/23 02:45:43;;;;;;;22.35;10.82;;;;;;;;;;4964894;28;20030;-57
2021/12/23 02:48:15;;;;;;;20.90;9.15;;;;;;;;;;4962957;28;20031;-57
2021/12/23 02:50:41;;;;;;;23.75;10.65;;;;;;;;;;4964903;28;20036;-57
2021/12/23 02:53:09;;;;;;;19.55;8.98;;;;;;;;;;4947130;28;20091;-57
2021/12/23 02:55:35;;;;;;;19.27;10.15;;;;;;;;;;4947616;28;20529;-57
2021/12/23 02:58:02;;;;;;;22.02;11.07;;;;;;;;;;4964184;28;20367;-57
2021/12/23 03:00:29;;;;;;;21.85;9.45;;;;;;;;;;4961058;28;20035;-57
2021/12/23 03:02:57;;;;;;;22.02;10.25;;;;;;;;;;4963948;28;20051;-57
2021/12/23 03:05:25;;;;;;;20.30;9.73;;;;;;;;;;4944268;28;20082;-57
2021/12/23 03:07:51;;;;;;;22.38;11.15;;;;;;;;;;4962808;28;20038;-57
2021/12/23 03:10:17;;;;;;;25.02;11.63;;;;;;;;;;4977683;28;20551;-58
2021/12/23 03:12:44;;;;;;;20.83;11.05;;;;;;;;;;4964589;28;20050;-58
2021/12/23 03:15:14;;;;;;;28.48;12.05;;;;;;;;;;4956977;28;20477;-58
2021/12/23 03:17:40;;;;;;;23.65;11.52;;;;;;;;;;4962827;28;20485;-59
2021/12/23 03:20:08;;;;;;;24.30;11.77;;;;;;;;;;4973271;28;20041;-58
2021/12/23 03:22:34;;;;;;;25.63;11.02;;;;;;;;;;4975450;28;20968;-58
2021/12/23 03:25:05;;;;;;;25.83;10.98;;;;;;;;;;4963112;28;20685;-58
2021/12/23 03:27:31;;;;;;;26.30;10.98;;;;;;;;;;4959405;28;20152;-58
2021/12/23 03:29:58;;;;;;;26.83;11.30;;;;;;;;;;4957499;28;20030;-57
2021/12/23 03:32:24;;;;;;;21.20;9.88;;;;;;;;;;4947035;28;20080;-57
2021/12/23 03:34:52;;;;;;;29.55;11.35;;;;;;;;;;4947790;28;20124;-58
2021/12/23 03:37:24;;;;;;;32.90;12.93;;;;;;;;;;4961239;28;21003;-57
2021/12/23 03:39:53;;;;;;;21.35;11.40;;;;;;;;;;4974925;28;20034;-58
2021/12/23 03:42:23;;;;;;;18.45;8.65;;;;;;;;;;4964731;28;20038;-58
2021/12/23 03:44:51;;;;;;;24.63;10.88;;;;;;;;;;4961470;28;20618;-58
2021/12/23 03:47:18;;;;;;;21.48;10.20;;;;;;;;;;4977837;28;20035;-58
2021/12/23 03:49:46;;;;;;;23.75;9.98;;;;;;;;;;4960078;28;20077;-58
2021/12/23 03:52:11;;;;;;;28.30;12.25;;;;;;;;;;4960360;28;20069;-57
2021/12/23 03:54:37;;;;;;;26.35;11.27;;;;;;;;;;4948298;28;20034;-58
2021/12/23 03:57:07;;;;;;;22.55;10.85;;;;;;;;;;4959912;28;20482;-58
2021/12/23 03:59:42;;;;;;;23.38;10.73;;;;;;;;;;4973685;28;20975;-57
2021/12/23 04:02:10;;;;;;;24.00;11.48;;;;;;;;;;4963935;28;20042;-58
2021/12/23 04:04:36;;;;;;;25.23;11.70;;;;;;;;;;4960984;28;20038;-58
2021/12/23 04:07:04;;;;;;;25.23;10.60;;;;;;;;;;4962086;28;20248;-58
2021/12/23 04:09:34;;;;;;;24.80;10.50;;;;;;;;;;4961938;28;20061;-57
2021/12/23 04:12:02;;;;;;;26.85;11.73;;;;;;;;;;4974841;28;20045;-56
2021/12/23 04:14:28;;;;;;;27.30;11.45;;;;;;;;;;4961103;28;20022;-56
2021/12/23 04:16:56;;;;;;;24.35;11.85;;;;;;;;;;4978452;28;20054;-56
2021/12/23 04:19:28;;;;;;;26.17;11.50;;;;;;;;;;4961584;28;20070;-58
2021/12/23 04:21:54;;;;;;;26.25;11.98;;;;;;;;;;4963105;28;20108;-58
2021/12/23 04:24:19;;;;;;;31.27;11.65;;;;;;;;;;4965977;28;22190;-57
2021/12/23 04:26:50;;;;;;;20.45;9.75;;;;;;;;;;4967778;28;20070;-58
2021/12/23 04:29:15;;;;;;;20.27;9.48;;;;;;;;;;4965383;28;20062;-57
2021/12/23 04:31:43;;;;;;;26.55;11.98;;;;;;;;;;4965905;28;20844;-58
2021/12/23 04:34:11;;;;;;;29.95;13.30;;;;;;;;;;4966635;28;20124;-56
2021/12/23 04:36:39;;;;;;;26.88;12.30;;;;;;;;;;4966267;28;20030;-58
2021/12/23 04:39:07;;;;;;;27.65;12.40;;;;;;;;;;4967593;28;20041;-58
2021/12/23 04:41:38;;;;;;;26.05;11.50;;;;;;;;;;4967224;28;20034;-58
2021/12/23 04:44:06;;;;;;;24.30;11.70;;;;;;;;;;4978198;28;20018;-59
2021/12/23 04:46:34;;;;;;;21.30;9.70;;;;;;;;;;4980811;28;20038;-58
2021/12/23 04:48:59;;;;;;;28.33;11.43;;;;;;;;;;4966050;28;20041;-58
2021/12/23 04:51:27;;;;;;;22.50;11.13;;;;;;;;;;4965842;28;20125;-58
2021/12/23 04:54:02;;;;;;;28.90;12.38;;;;;;;;;;4934400;28;20537;-57
2021/12/23 04:56:28;;;;;;;20.23;10.02;;;;;;;;;;4960905;28;20117;-57
2021/12/23 04:58:56;;;;;;;26.17;11.88;;;;;;;;;;4960025;28;20035;-57
2021/12/23 05:01:29;;;;;;;22.60;11.32;;;;;;;;;;4964596;28;20026;-58
2021/12/23 05:03:55;;;;;;;22.88;10.50;;;;;;;;;;4963693;28;20128;-57
2021/12/23 05:06:28;;;;;;;23.98;11.20;;;;;;;;;;4960564;28;20034;-58
2021/12/23 05:08:55;;;;;;;25.25;12.55;;;;;;;;;;4980315;28;20046;-58
2021/12/23 05:11:21;;;;;;;29.10;10.73;;;;;;;;;;4976490;28;20042;-58
2021/12/23 05:13:47;;;;;;;28.02;12.48;;;;;;;;;;4963448;28;20108;-60
2021/12/23 05:16:13;;;;;;;23.35;11.02;;;;;;;;;;4968002;28;20554;-58
2021/12/23 05:18:42;;;;;;;24.45;12.02;;;;;;;;;;4965906;28;20458;-59
2021/12/23 05:21:08;;;;;;;26.20;12.60;;;;;;;;;;4977089;28;20041;-58
2021/12/23 05:23:39;;;;;;;29.00;12.32;;;;;;;;;;4965693;28;20034;-58
2021/12/23 05:26:06;;;;;;;27.83;12.35;;;;;;;;;;4959271;28;22021;-57
2021/12/23 05:28:38;;;;;;;24.80;12.48;;;;;;;;;;4943264;28;20042;-57
2021/12/23 05:31:04;;;;;;;30.77;12.35;;;;;;;;;;4961369;28;20038;-57
2021/12/23 05:33:31;;;;;;;26.63;12.05;;;;;;;;;;4965948;28;20038;-58
2021/12/23 05:35:57;;;;;;;25.08;11.13;;;;;;;;;;4963844;28;20068;-56
2021/12/23 05:38:23;;;;;;;30.73;12.18;;;;;;;;;;4962294;28;20157;-57
2021/12/23 05:40:50;;;;;;;22.33;10.77;;;;;;;;;;4978910;28;20043;-56
2021/12/23 05:43:16;;;;;;;26.15;11.10;;;;;;;;;;4965222;28;20159;-57
2021/12/23 05:45:42;;;;;;;24.65;12.02;;;;;;;;;;4975045;28;20781;-58
2021/12/23 05:48:07;;;;;;;36.08;13.13;;;;;;;;;;4975380;28;20073;-57
2021/12/23 05:50:34;;;;;;;27.98;12.82;;;;;;;;;;4978468;28;20038;-58
2021/12/23 05:53:05;;;;;;;22.38;10.38;;;;;;;;;;4965421;28;20081;-58
2021/12/23 05:55:36;;;;;;;24.65;10.65;;;;;;;;;;4961720;28;20628;-60
2021/12/23 05:58:06;;;;;;;28.42;11.93;;;;;;;;;;4961064;28;20038;-59
2021/12/23 06:00:33;;;;;;;27.05;11.48;;;;;;;;;;4964340;28;20388;-58
2021/12/23 06:03:02;;;;;;;26.08;11.93;;;;;;;;;;4962193;28;20042;-59
2021/12/23 06:05:32;;;;;;;24.15;11.82;;;;;;;;;;4977510;28;20038;-57
2021/12/23 06:07:57;;;;;;;25.98;12.10;;;;;;;;;;4963985;28;20043;-58
2021/12/23 06:10:23;;;;;;;24.27;10.90;;;;;;;;;;4963080;28;20195;-59
2021/12/23 06:12:48;;;;;;;29.67;12.77;;;;;;;;;;4964456;28;20413;-59
2021/12/23 06:15:19;;;;;;;30.70;12.63;;;;;;;;;;4962574;28;20030;-58
2021/12/23 06:17:47;;;;;;;32.92;12.88;;;;;;;;;;4978091;28;20785;-58
2021/12/23 06:20:12;;;;;;;31.33;12.40;;;;;;;;;;4964218;28;20053;-59
2021/12/23 06:22:42;;;;;;;28.42;13.25;;;;;;;;;;4963012;28;20035;-59
2021/12/23 06:25:09;;;;;;;33.63;13.50;;;;;;;;;;4963938;28;20089;-57
2021/12/23 06:27:37;;;;;;;31.45;13.90;;;;;;;;;;4964060;28;20034;-58
2021/12/23 06:30:19;;;;;;;26.33;13.18;;;;;;;;;;4963995;28;20041;-58
2021/12/23 06:32:52;;;;;;;33.70;13.18;;;;;;;;;;4978003;28;20034;-61
2021/12/23 06:35:20;;;;;;;30.63;13.77;;;;;;;;;;4961661;28;20026;-58
2021/12/23 06:37:48;;;;;;;30.23;14.55;;;;;;;;;;4963410;28;20034;-59
2021/12/23 06:40:16;;;;;;;29.25;14.05;;;;;;;;;;4964220;28;20141;-59
2021/12/23 06:42:45;;;;;;;29.30;13.15;;;;;;;;;;4965044;28;20030;-59
2021/12/23 06:45:13;;;;;;;32.85;14.57;;;;;;;;;;4964853;28;20163;-58
2021/12/23 06:47:44;;;;;;;30.20;13.77;;;;;;;;;;4963337;28;20481;-59
2021/12/23 06:50:10;;;;;;;34.03;13.80;;;;;;;;;;4978815;28;20030;-59
2021/12/23 06:52:38;;;;;;;32.30;14.00;;;;;;;;;;4961933;28;20041;-59
2021/12/23 06:55:04;;;;;;;30.10;13.18;;;;;;;;;;4977215;28;20030;-57
2021/12/23 06:57:32;;;;;;;38.03;13.90;;;;;;;;;;4974749;28;20520;-58
2021/12/23 06:59:57;;;;;;;33.50;14.05;;;;;;;;;;4963201;28;20034;-58
2021/12/23 07:02:27;;;;;;;36.70;13.85;;;;;;;;;;4974681;28;20149;-57
2021/12/23 07:04:53;;;;;;;38.92;15.27;;;;;;;;;;4964830;28;20259;-57
2021/12/23 07:07:28;;;;;;;30.52;14.95;;;;;;;;;;4958399;28;20065;-58
2021/12/23 07:09:56;;;;;;;38.30;16.00;;;;;;;;;;4961577;28;20054;-58
2021/12/23 07:12:24;;;;;;;39.85;15.45;;;;;;;;;;4959028;28;20246;-58
2021/12/23 07:14:52;;;;;;;32.22;14.43;;;;;;;;;;4966644;28;20053;-58
2021/12/23 07:17:18;;;;;;;34.13;14.45;;;;;;;;;;4962121;28;20066;-59
2021/12/23 07:19:43;;;;;;;39.25;15.57;;;;;;;;;;4966148;28;20023;-58
2021/12/23 07:22:11;;;;;;;35.80;15.68;;;;;;;;;;4973547;28;20046;-57
2021/12/23 07:24:36;;;;;;;34.55;15.02;;;;;;;;;;4955945;28;20039;-58
2021/12/23 07:27:04;;;;;;;45.45;15.98;;;;;;;;;;4965688;28;20085;-58
2021/12/23 07:29:32;;;;;;;32.85;16.17;;;;;;;;;;4962458;28;20026;-57
2021/12/23 07:32:02;;;;;;;35.78;15.80;;;;;;;;;;4961241;28;20038;-57
2021/12/23 07:34:30;;;;;;;38.90;15.98;;;;;;;;;;4957753;28;20038;-57
2021/12/23 07:36:58;;;;;;;46.15;17.45;;;;;;;;;;4974829;28;20059;-57
2021/12/23 07:39:28;;;;;;;36.15;15.00;;;;;;;;;;4961873;28;20155;-57
2021/12/23 07:41:58;;;;;;;35.35;16.73;;;;;;;;;;4974846;28;20034;-59
2021/12/23 07:44:29;;;;;;;46.30;19.15;;;;;;;;;;4965184;28;20054;-58
2021/12/23 07:46:54;;;;;;;35.28;14.45;;;;;;;;;;4964893;28;20061;-58
2021/12/23 07:49:20;;;;;;;43.10;16.73;;;;;;;;;;4964315;28;20027;-58
2021/12/23 07:51:48;;;;;;;41.25;18.45;;;;;;;;;;4962521;28;20034;-59
2021/12/23 07:54:16;;;;;;;45.30;19.42;;;;;;;;;;4962073;28;20036;-60
2021/12/23 07:56:43;;;;;;;37.67;18.25;;;;;;;;;;4944965;28;20034;-59
2021/12/23 07:59:11;;;;;;;38.53;15.57;;;;;;;;;;4981574;28;20038;-59
2021/12/23 08:01:41;;;;;;;33.95;16.17;;;;;;;;;;4965115;28;22025;-58
2021/12/23 08:04:06;;;;;;;37.22;15.90;;;;;;;;;;4983468;28;20789;-60
2021/12/23 08:06:34;;;;;;;37.67;16.35;;;;;;;;;;4948621;28;20041;-58
2021/12/23 08:09:00;;;;;;;35.75;16.35;;;;;;;;;;4968171;28;20061;-60
2021/12/23 08:11:38;;;;;;;36.88;16.23;;;;;;;;;;4968669;28;20050;-59
2021/12/23 08:14:03;;;;;;;43.70;17.25;;;;;;;;;;4962601;28;20038;-57
2021/12/23 08:16:31;;;;;;;40.28;17.60;;;;;;;;;;4961306;28;20602;-59
2021/12/23 08:18:59;;;;;;;33.03;16.02;;;;;;;;;;4967157;28;20034;-59
2021/12/23 08:21:28;;;;;;;38.30;16.05;;;;;;;;;;4965379;28;20072;-58
2021/12/23 08:23:54;;;;;;;40.67;16.35;;;;;;;;;;4970828;28;20018;-59
2021/12/23 08:26:22;;;;;;;35.67;15.40;;;;;;;;;;4968364;28;20036;-59
2021/12/23 08:28:47;;;;;;;37.55;17.35;;;;;;;;;;4962163;28;20934;-59
2021/12/23 08:31:15;;;;;;;34.92;15.00;;;;;;;;;;4968069;28;20034;-60
2021/12/23 08:33:40;;;;;;;35.35;15.13;;;;;;;;;;4945983;28;20042;-60
2021/12/23 08:36:06;;;;;;;36.80;16.55;;;;;;;;;;4978222;28;20039;-59
2021/12/23 08:38:31;;;;;;;33.72;15.40;;;;;;;;;;4967534;28;20069;-59
2021/12/23 08:40:57;;;;;;;36.40;16.13;;;;;;;;;;4967856;28;20497;-59
2021/12/23 08:43:31;;;;;;;32.20;14.43;;;;;;;;;;4965851;28;20049;-58
2021/12/23 08:45:59;;;;;;;40.60;17.35;;;;;;;;;;4963492;28;20062;-58
2021/12/23 08:48:27;;;;;;;41.55;16.20;;;;;;;;;;4961472;28;20430;-58
2021/12/23 08:50:52;;;;;;;39.53;17.63;;;;;;;;;;4978289;28;20038;-58
2021/12/23 08:53:18;;;;;;;34.45;15.32;;;;;;;;;;4965944;28;20041;-58
2021/12/23 08:55:44;;;;;;;35.95;14.65;;;;;;;;;;4968522;28;20046;-58
2021/12/23 08:58:11;;;;;;;41.47;18.52;;;;;;;;;;4963921;28;20667;-57
2021/12/23 09:00:38;;;;;;;36.88;15.88;;;;;;;;;;4965938;28;20058;-60
2021/12/23 09:03:08;;;;;;;37.45;16.10;;;;;;;;;;4966991;28;21218;-59
2021/12/23 09:05:37;;;;;;;37.80;16.45;;;;;;;;;;4968228;28;20030;-59
2021/12/23 09:08:08;;;;;;;36.25;15.75;;;;;;;;;;4980470;28;20049;-59
2021/12/23 09:10:34;;;;;;;39.30;17.10;;;;;;;;;;4967120;28;20585;-59
2021/12/23 09:12:59;;;;;;;42.53;15.38;;;;;;;;;;4960399;28;20069;-59
2021/12/23 09:15:27;;;;;;;32.17;15.07;;;;;;;;;;4968380;28;20023;-58
2021/12/23 09:17:55;;;;;;;42.15;16.23;;;;;;;;;;4959939;28;20479;-59
2021/12/23 09:20:29;;;;;;;36.03;15.73;;;;;;;;;;4968416;28;22033;-58
2021/12/23 09:22:59;;;;;;;39.75;16.20;;;;;;;;;;4966899;28;20038;-59
2021/12/23 09:25:32;;;;;;;33.85;15.73;;;;;;;;;;4977529;28;20026;-59
2021/12/23 09:33:20;;;;;;;36.42;15.63;;;;;;;;;;4982554;28;20034;-58
2021/12/23 09:35:46;;;;;;;32.40;15.07;;;;;;;;;;4964699;28;20124;-58
2021/12/23 09:38:14;;;;;;;36.10;16.80;;;;;;;;;;4964876;28;20039;-57
2021/12/23 09:40:45;;;;;;;42.55;17.08;;;;;;;;;;4965992;28;21106;-58
2021/12/23 09:43:13;;;;;;;43.35;16.38;;;;;;;;;;4963179;28;20100;-58
2021/12/23 09:45:40;;;;;;;34.95;15.65;;;;;;;;;;4979303;28;20154;-58
2021/12/23 09:48:06;;;;;;;36.70;16.70;;;;;;;;;;4963500;28;20042;-57
2021/12/23 09:50:36;;;;;;;36.92;15.73;;;;;;;;;;4966251;28;22054;-57
2021/12/23 09:53:04;;;;;;;50.63;17.80;;;;;;;;;;4963123;28;20042;-58
2021/12/23 09:55:33;;;;;;;38.90;16.20;;;;;;;;;;4965017;28;20038;-58
2021/12/23 09:58:01;;;;;;;43.35;18.67;;;;;;;;;;4964404;28;20125;-56
2021/12/23 10:00:31;;;;;;;45.88;18.25;;;;;;;;;;4963668;28;20161;-58
2021/12/23 10:02:57;;;;;;;54.28;19.65;;;;;;;;;;4964781;28;20038;-56
2021/12/23 10:05:27;;;;;;;44.47;18.55;;;;;;;;;;4964870;28;21689;-55
2021/12/23 10:07:57;;;;;;;48.03;17.58;;;;;;;;;;4965922;28;20038;-56
2021/12/23 10:29:00;;;;;;;44.30;18.63;;;;;;;;;;4964991;28;20066;-59
2021/12/23 10:39:44;;;;;;;47.70;19.65;;;;;;;;;;4965492;28;20038;-57
2021/12/23 10:42:21;;;;;;;49.28;20.02;;;;;;;;;;4965243;28;20048;-56
2021/12/23 10:44:58;;;;;;;54.38;19.02;;;;;;;;;;4963639;28;20489;-56
2021/12/23 10:47:33;;;;;;;52.40;20.52;;;;;;;;;;4961623;28;20038;-58
2021/12/23 10:50:12;;;;;;;53.70;21.15;;;;;;;;;;4965410;28;20030;-57
2021/12/23 10:52:55;;;;;;;44.65;19.23;;;;;;;;;;4963770;28;20121;-58
2021/12/23 10:58:03;;;;;;;50.40;19.80;;;;;;;;;;4963602;28;20034;-56
2021/12/23 11:00:33;;;;;;;51.30;19.48;;;;;;;;;;4958255;28;20030;-56
2021/12/23 11:02:59;;;;;;;55.50;20.88;;;;;;;;;;4975135;28;20069;-58
2021/12/23 11:05:29;;;;;;;65.70;21.10;;;;;;;;;;4962508;28;21959;-57
2021/12/23 11:10:44;;;;;;;54.88;20.85;;;;;;;;;;4964420;28;20133;-59
2021/12/23 11:38:20;;;;;;;52.13;20.10;;;;;;;;;;4963875;28;20031;-59
2021/12/23 11:43:28;;;;;;;52.90;20.40;;;;;;;;;;4964092;28;20034;-60
2021/12/23 11:45:56;;;;;;;51.90;19.30;;;;;;;;;;4964685;28;20038;-60
2021/12/23 11:48:22;;;;;;;62.08;22.23;;;;;;;;;;4959071;28;20042;-61
2021/12/23 11:51:06;;;;;;;50.65;17.80;;;;;;;;;;4956693;28;20113;-59
2021/12/23 11:53:32;;;;;;;53.30;19.13;;;;;;;;;;4979824;28;20042;-60
2021/12/23 11:56:01;;;;;;;54.65;19.48;;;;;;;;;;4964569;28;20034;-60
2021/12/23 11:58:27;;;;;;;56.92;18.80;;;;;;;;;;4964880;28;20038;-61
2021/12/23 12:01:06;;;;;;;55.40;19.30;;;;;;;;;;4961642;28;20042;-60
2021/12/23 12:03:59;;;;;;;53.67;18.65;;;;;;;;;;4962617;28;20034;-59
2021/12/23 12:06:28;;;;;;;51.35;20.13;;;;;;;;;;4960105;28;20073;-60
2021/12/23 12:09:09;;;;;;;48.95;18.55;;;;;;;;;;4961690;28;20580;-61
2021/12/23 12:11:35;;;;;;;50.60;19.90;;;;;;;;;;4962840;28;20132;-59
2021/12/23 12:14:00;;;;;;;56.55;20.02;;;;;;;;;;4954653;28;20030;-60
2021/12/23 12:16:28;;;;;;;50.72;19.45;;;;;;;;;;4961058;28;20026;-60
2021/12/23 12:18:59;;;;;;;49.80;18.48;;;;;;;;;;4941301;28;20027;-60
2021/12/23 12:21:28;;;;;;;56.70;20.05;;;;;;;;;;4959621;28;20039;-59
2021/12/23 12:24:12;;;;;;;50.35;18.27;;;;;;;;;;4977775;28;20045;-59
2021/12/23 12:26:53;;;;;;;44.05;18.80;;;;;;;;;;4976604;28;20116;-60
2021/12/23 12:29:19;;;;;;;43.72;19.67;;;;;;;;;;4959793;28;21975;-59
2021/12/23 12:31:47;;;;;;;46.45;17.88;;;;;;;;;;4962045;28;20046;-59
2021/12/23 12:34:13;;;;;;;46.40;18.10;;;;;;;;;;4962182;28;20043;-58
2021/12/23 12:36:41;;;;;;;54.13;20.02;;;;;;;;;;4969031;28;20034;-59
2021/12/23 12:39:10;;;;;;;52.63;19.55;;;;;;;;;;4959094;28;20041;-59
2021/12/23 12:41:37;;;;;;;51.53;20.02;;;;;;;;;;4973048;28;20031;-59
2021/12/23 12:44:11;;;;;;;46.92;19.10;;;;;;;;;;4963446;28;20130;-57
2021/12/23 12:49:12;;;;;;;45.75;18.33;;;;;;;;;;4964373;28;20619;-58
2021/12/23 12:51:42;;;;;;;52.75;19.83;;;;;;;;;;4965908;28;20034;-58
2021/12/23 12:54:09;;;;;;;55.33;20.25;;;;;;;;;;4964494;28;20037;-59
2021/12/23 12:56:45;;;;;;;47.15;18.75;;;;;;;;;;4965439;28;20113;-56
2021/12/23 12:59:15;;;;;;;50.40;18.80;;;;;;;;;;4976805;28;20030;-57
2021/12/23 13:01:45;;;;;;;47.00;18.60;;;;;;;;;;4963102;28;20122;-57
2021/12/23 13:04:22;;;;;;;45.55;18.85;;;;;;;;;;4966285;28;20049;-57
2021/12/23 13:06:54;;;;;;;47.80;19.20;;;;;;;;;;4980385;28;20031;-57
2021/12/23 13:09:30;;;;;;;47.45;18.85;;;;;;;;;;4965908;28;20602;-57
2021/12/23 13:12:03;;;;;;;50.63;18.60;;;;;;;;;;4965812;28;20046;-57
2021/12/23 13:14:46;;;;;;;52.85;18.08;;;;;;;;;;4964594;28;20033;-58
2021/12/23 13:17:12;;;;;;;50.35;19.90;;;;;;;;;;4962819;28;20112;-57
2021/12/23 13:19:40;;;;;;;61.97;20.27;;;;;;;;;;4965069;28;20117;-57
2021/12/23 13:22:07;;;;;;;47.47;17.50;;;;;;;;;;4979006;28;20038;-57
2021/12/23 13:24:37;;;;;;;42.40;18.77;;;;;;;;;;4964657;28;20093;-57
2021/12/23 13:27:10;;;;;;;45.30;18.15;;;;;;;;;;4958017;28;20202;-57
2021/12/23 13:29:41;;;;;;;53.10;19.25;;;;;;;;;;4964589;28;20018;-57
2021/12/23 13:32:11;;;;;;;52.58;18.73;;;;;;;;;;4963996;28;20807;-58
2021/12/23 13:34:39;;;;;;;53.58;18.63;;;;;;;;;;4959403;28;20168;-57
2021/12/23 13:37:09;;;;;;;51.83;19.33;;;;;;;;;;4962738;28;20096;-56
2021/12/23 13:39:37;;;;;;;56.67;19.38;;;;;;;;;;4966196;28;20030;-57
2021/12/23 13:42:08;;;;;;;47.55;16.98;;;;;;;;;;4964254;28;20110;-56
2021/12/23 13:44:35;;;;;;;62.03;20.55;;;;;;;;;;4964898;28;20033;-57
2021/12/23 13:47:04;;;;;;;50.38;19.85;;;;;;;;;;4964080;28;20031;-58
2021/12/23 13:49:39;;;;;;;58.83;19.95;;;;;;;;;;4965521;28;20030;-57
2021/12/23 13:52:08;;;;;;;58.42;20.02;;;;;;;;;;4977967;28;20117;-56
2021/12/23 13:54:37;;;;;;;56.85;19.95;;;;;;;;;;4943060;28;20027;-57
2021/12/23 13:57:08;;;;;;;51.50;19.38;;;;;;;;;;4942179;28;21040;-57
2021/12/23 13:59:37;;;;;;;61.60;20.05;;;;;;;;;;4978435;28;20038;-57
2021/12/23 14:02:02;;;;;;;51.30;19.17;;;;;;;;;;4975472;28;20544;-57
2021/12/23 14:04:28;;;;;;;59.65;22.23;;;;;;;;;;4965232;28;20034;-57
2021/12/23 14:06:53;;;;;;;53.33;20.40;;;;;;;;;;4964721;28;20031;-56
2021/12/23 14:09:28;;;;;;;56.92;20.88;;;;;;;;;;4965858;28;20105;-57
2021/12/23 14:11:54;;;;;;;45.25;18.45;;;;;;;;;;4975312;28;20162;-57
2021/12/23 14:14:19;;;;;;;51.40;19.45;;;;;;;;;;4965155;28;20626;-57
2021/12/23 14:16:44;;;;;;;60.65;19.50;;;;;;;;;;4960231;28;20031;-57
2021/12/23 14:19:26;;;;;;;56.90;19.65;;;;;;;;;;4976509;28;20046;-57
2021/12/23 14:24:41;;;;;;;50.90;17.27;;;;;;;;;;4963050;28;20392;-57
2021/12/23 14:27:07;;;;;;;58.40;19.88;;;;;;;;;;4963257;28;21112;-57
2021/12/23 14:29:37;;;;;;;57.50;19.92;;;;;;;;;;4965439;28;20751;-57
2021/12/23 14:32:03;;;;;;;54.10;19.50;;;;;;;;;;4961221;28;20042;-59
2021/12/23 14:34:32;;;;;;;63.97;21.70;;;;;;;;;;4976876;28;20037;-58
2021/12/23 14:36:59;;;;;;;59.35;21.20;;;;;;;;;;4961555;28;20027;-60
2021/12/23 14:39:30;;;;;;;53.08;20.15;;;;;;;;;;4942243;28;20133;-59
2021/12/23 14:42:11;;;;;;;57.95;19.65;;;;;;;;;;4962317;28;20034;-59
2021/12/23 14:44:39;;;;;;;51.70;19.75;;;;;;;;;;4964998;28;20023;-59
2021/12/23 14:47:23;;;;;;;58.85;20.30;;;;;;;;;;4964491;28;20370;-58
2021/12/23 14:52:27;;;;;;;67.65;21.80;;;;;;;;;;4963269;28;20045;-59
2021/12/23 14:54:58;;;;;;;64.60;19.60;;;;;;;;;;4974238;28;20041;-57
2021/12/23 14:57:26;;;;;;;59.80;21.20;;;;;;;;;;4974466;28;20085;-57
2021/12/23 14:59:52;;;;;;;60.53;21.35;;;;;;;;;;4961050;28;20030;-59
2021/12/23 15:02:20;;;;;;;60.88;19.52;;;;;;;;;;4963089;28;20133;-57
2021/12/23 15:05:15;;;;;;;68.28;21.55;;;;;;;;;;4964125;28;20954;-57
2021/12/23 15:07:45;;;;;;;59.85;21.83;;;;;;;;;;4934098;28;20070;-56
2021/12/23 15:10:11;;;;;;;68.90;22.50;;;;;;;;;;4962155;28;20382;-57
2021/12/23 15:12:37;;;;;;;72.13;22.95;;;;;;;;;;4946794;28;20050;-57
2021/12/23 15:15:08;;;;;;;70.63;21.40;;;;;;;;;;4960141;28;20110;-57
2021/12/23 15:17:54;;;;;;;69.90;23.10;;;;;;;;;;4972730;28;20383;-57
2021/12/23 15:20:25;;;;;;;77.78;23.48;;;;;;;;;;4962724;28;20030;-56
2021/12/23 15:22:56;;;;;;;68.80;23.15;;;;;;;;;;4940344;28;20462;-58
2021/12/23 15:25:31;;;;;;;65.13;22.83;;;;;;;;;;4957192;28;20039;-57
2021/12/23 15:27:59;;;;;;;70.97;23.48;;;;;;;;;;4974760;28;20037;-58
2021/12/23 15:30:29;;;;;;;76.10;23.38;;;;;;;;;;4962323;28;20557;-57
2021/12/23 15:32:57;;;;;;;70.65;24.08;;;;;;;;;;4979365;28;20030;-57
2021/12/23 15:35:30;;;;;;;75.97;23.92;;;;;;;;;;4974589;28;20435;-58
2021/12/23 15:37:58;;;;;;;82.40;23.95;;;;;;;;;;4957041;28;20038;-58
2021/12/23 15:40:26;;;;;;;75.85;23.85;;;;;;;;;;4957383;28;20069;-57
2021/12/23 15:42:58;;;;;;;61.67;20.90;;;;;;;;;;4961486;28;20536;-57
2021/12/23 15:45:26;;;;;;;69.47;22.17;;;;;;;;;;4963280;28;20065;-57
2021/12/23 15:47:52;;;;;;;68.85;23.58;;;;;;;;;;4964146;28;20034;-58